sensor_id;sensor_type;location;lat;lon;timestamp;temperature;humidity
33761;DHT22;20084;47.912;19.044;2023-07-16T00:02:01;20.30;99.90
33761;DHT22;20084;47.912;19.044;2023-07-16T00:04:26;20.20;99.90
33761;DHT22;20084;47.912;19.044;2023-07-16T00:06:51;20.30;99.90
33761;DHT22;20084;47.912;19.044;2023-07-16T00:09:17;20.30;99.90
33761;DHT22;20084;47.912;19.044;2023-07-16T00:11:43;20.30;99.90
33761;DHT22;20084;47.912;19.044;2023-07-16T00:14:09;20.30;99.90
33761;DHT22;20084;47.912;19.044;2023-07-16T00:16:35;20.20;99.90
33761;DHT22;20084;47.912;19.044;2023-07-16T00:19:00;20.20;99.90
33761;DHT22;20084;47.912;19.044;2023-07-16T00:21:26;20.10;99.90
33761;DHT22;20084;47.912;19.044;2023-07-16T00:23:51;20.10;99.90
33761;DHT22;20084;47.912;19.044;2023-07-16T00:26:17;20.00;99.90
33761;DHT22;20084;47.912;19.044;2023-07-16T00:28:42;20.00;99.90
33761;DHT22;20084;47.912;19.044;2023-07-16T00:31:09;20.10;99.90
33761;DHT22;20084;47.912;19.044;2023-07-16T00:33:35;20.00;99.90
33761;DHT22;20084;47.912;19.044;2023-07-16T00:36:00;20.00;99.90
33761;DHT22;20084;47.912;19.044;2023-07-16T00:38:26;20.10;99.90
33761;DHT22;20084;47.912;19.044;2023-07-16T00:40:52;20.00;99.90
33761;DHT22;20084;47.912;19.044;2023-07-16T00:43:17;20.00;99.90
33761;DHT22;20084;47.912;19.044;2023-07-16T00:45:45;20.00;99.90
33761;DHT22;20084;47.912;19.044;2023-07-16T00:48:11;20.00;99.90
33761;DHT22;20084;47.912;19.044;2023-07-16T00:50:36;20.00;99.90
33761;DHT22;20084;47.912;19.044;2023-07-16T00:53:07;20.00;99.90
33761;DHT22;20084;47.912;19.044;2023-07-16T00:55:33;20.00;99.90
33761;DHT22;20084;47.912;19.044;2023-07-16T00:58:03;20.00;99.90
33761;DHT22;20084;47.912;19.044;2023-07-16T01:00:34;19.90;99.90
33761;DHT22;20084;47.912;19.044;2023-07-16T01:03:00;20.00;99.90
33761;DHT22;20084;47.912;19.044;2023-07-16T01:05:27;20.00;99.90
33761;DHT22;20084;47.912;19.044;2023-07-16T01:07:58;19.90;99.90
33761;DHT22;20084;47.912;19.044;2023-07-16T01:10:24;19.90;99.90
33761;DHT22;20084;47.912;19.044;2023-07-16T01:12:51;19.90;99.90
33761;DHT22;20084;47.912;19.044;2023-07-16T01:15:18;19.90;99.90
33761;DHT22;20084;47.912;19.044;2023-07-16T01:17:43;19.80;99.90
33761;DHT22;20084;47.912;19.044;2023-07-16T01:20:10;19.80;99.90
33761;DHT22;20084;47.912;19.044;2023-07-16T01:30:27;19.60;99.90
33761;DHT22;20084;47.912;19.044;2023-07-16T01:32:53;19.60;99.90
33761;DHT22;20084;47.912;19.044;2023-07-16T01:35:18;19.60;99.90
33761;DHT22;20084;47.912;19.044;2023-07-16T01:37:45;19.60;99.90
33761;DHT22;20084;47.912;19.044;2023-07-16T01:40:10;19.60;99.90
33761;DHT22;20084;47.912;19.044;2023-07-16T01:42:36;19.60;99.90
33761;DHT22;20084;47.912;19.044;2023-07-16T01:45:02;19.50;99.90
33761;DHT22;20084;47.912;19.044;2023-07-16T01:49:59;19.50;99.90
33761;DHT22;20084;47.912;19.044;2023-07-16T01:52:25;19.50;99.90
33761;DHT22;20084;47.912;19.044;2023-07-16T01:54:50;19.40;99.90
33761;DHT22;20084;47.912;19.044;2023-07-16T01:57:15;19.40;99.90
33761;DHT22;20084;47.912;19.044;2023-07-16T01:59:41;19.30;99.90
33761;DHT22;20084;47.912;19.044;2023-07-16T02:02:06;19.30;99.90
33761;DHT22;20084;47.912;19.044;2023-07-16T02:04:32;19.30;99.90
33761;DHT22;20084;47.912;19.044;2023-07-16T02:06:58;19.20;99.90
33761;DHT22;20084;47.912;19.044;2023-07-16T02:09:23;19.20;99.90
33761;DHT22;20084;47.912;19.044;2023-07-16T02:11:50;19.20;99.90
33761;DHT22;20084;47.912;19.044;2023-07-16T02:14:16;19.20;99.90
33761;DHT22;20084;47.912;19.044;2023-07-16T02:16:41;19.20;99.90
33761;DHT22;20084;47.912;19.044;2023-07-16T02:19:07;19.10;99.90
33761;DHT22;20084;47.912;19.044;2023-07-16T02:21:32;19.00;99.90
33761;DHT22;20084;47.912;19.044;2023-07-16T02:23:58;18.90;99.90
33761;DHT22;20084;47.912;19.044;2023-07-16T02:26:23;18.80;99.90
33761;DHT22;20084;47.912;19.044;2023-07-16T02:28:49;18.80;99.90
33761;DHT22;20084;47.912;19.044;2023-07-16T02:31:14;18.80;99.90
33761;DHT22;20084;47.912;19.044;2023-07-16T02:33:40;18.80;99.90
33761;DHT22;20084;47.912;19.044;2023-07-16T02:36:05;18.80;99.90
33761;DHT22;20084;47.912;19.044;2023-07-16T02:38:31;18.80;99.90
33761;DHT22;20084;47.912;19.044;2023-07-16T02:40:57;18.70;99.90
33761;DHT22;20084;47.912;19.044;2023-07-16T02:43:22;18.80;99.90
33761;DHT22;20084;47.912;19.044;2023-07-16T02:45:48;18.80;99.90
33761;DHT22;20084;47.912;19.044;2023-07-16T02:48:13;18.80;99.90
33761;DHT22;20084;47.912;19.044;2023-07-16T02:50:39;18.80;99.90
33761;DHT22;20084;47.912;19.044;2023-07-16T02:53:05;18.80;99.90
33761;DHT22;20084;47.912;19.044;2023-07-16T02:55:30;18.70;99.90
33761;DHT22;20084;47.912;19.044;2023-07-16T02:57:56;18.70;99.90
33761;DHT22;20084;47.912;19.044;2023-07-16T03:00:21;18.70;99.90
33761;DHT22;20084;47.912;19.044;2023-07-16T03:02:47;18.70;99.90
33761;DHT22;20084;47.912;19.044;2023-07-16T03:05:15;18.70;99.90
33761;DHT22;20084;47.912;19.044;2023-07-16T03:07:40;18.70;99.90
33761;DHT22;20084;47.912;19.044;2023-07-16T03:10:06;18.60;99.90
33761;DHT22;20084;47.912;19.044;2023-07-16T03:12:31;18.60;99.90
33761;DHT22;20084;47.912;19.044;2023-07-16T03:14:57;18.50;99.90
33761;DHT22;20084;47.912;19.044;2023-07-16T03:17:22;18.50;99.90
33761;DHT22;20084;47.912;19.044;2023-07-16T03:19:48;18.50;99.90
33761;DHT22;20084;47.912;19.044;2023-07-16T03:22:13;18.50;99.90
33761;DHT22;20084;47.912;19.044;2023-07-16T03:24:39;18.40;99.90
33761;DHT22;20084;47.912;19.044;2023-07-16T03:27:05;18.40;99.90
33761;DHT22;20084;47.912;19.044;2023-07-16T03:29:32;18.40;99.90
33761;DHT22;20084;47.912;19.044;2023-07-16T03:31:57;18.50;99.90
33761;DHT22;20084;47.912;19.044;2023-07-16T03:34:23;18.50;99.90
33761;DHT22;20084;47.912;19.044;2023-07-16T03:36:49;18.50;99.90
33761;DHT22;20084;47.912;19.044;2023-07-16T03:39:14;18.50;99.90
33761;DHT22;20084;47.912;19.044;2023-07-16T03:41:40;18.50;99.90
33761;DHT22;20084;47.912;19.044;2023-07-16T03:44:05;18.60;99.90
33761;DHT22;20084;47.912;19.044;2023-07-16T03:46:31;18.60;99.90
33761;DHT22;20084;47.912;19.044;2023-07-16T03:48:56;18.60;99.90
33761;DHT22;20084;47.912;19.044;2023-07-16T03:51:22;18.50;99.90
33761;DHT22;20084;47.912;19.044;2023-07-16T03:53:47;18.50;99.90
33761;DHT22;20084;47.912;19.044;2023-07-16T03:56:13;18.50;99.90
33761;DHT22;20084;47.912;19.044;2023-07-16T03:58:38;18.60;99.90
33761;DHT22;20084;47.912;19.044;2023-07-16T04:01:04;18.70;99.90
33761;DHT22;20084;47.912;19.044;2023-07-16T04:03:29;18.80;99.90
33761;DHT22;20084;47.912;19.044;2023-07-16T04:06:02;18.90;99.90
33761;DHT22;20084;47.912;19.044;2023-07-16T04:08:27;19.00;99.90
33761;DHT22;20084;47.912;19.044;2023-07-16T04:10:53;19.00;99.90
33761;DHT22;20084;47.912;19.044;2023-07-16T04:13:18;19.10;99.90
33761;DHT22;20084;47.912;19.044;2023-07-16T04:15:44;19.10;99.90
33761;DHT22;20084;47.912;19.044;2023-07-16T04:18:09;19.20;99.90
33761;DHT22;20084;47.912;19.044;2023-07-16T04:20:35;19.30;99.90
33761;DHT22;20084;47.912;19.044;2023-07-16T04:23:00;19.40;99.90
33761;DHT22;20084;47.912;19.044;2023-07-16T04:25:26;19.50;99.90
33761;DHT22;20084;47.912;19.044;2023-07-16T04:27:51;19.60;99.90
33761;DHT22;20084;47.912;19.044;2023-07-16T04:30:17;19.60;99.90
33761;DHT22;20084;47.912;19.044;2023-07-16T04:32:42;19.70;99.90
33761;DHT22;20084;47.912;19.044;2023-07-16T04:35:08;19.80;99.90
33761;DHT22;20084;47.912;19.044;2023-07-16T04:37:34;19.90;99.90
33761;DHT22;20084;47.912;19.044;2023-07-16T04:39:59;20.10;99.90
33761;DHT22;20084;47.912;19.044;2023-07-16T04:42:25;20.10;99.90
33761;DHT22;20084;47.912;19.044;2023-07-16T04:44:50;20.30;99.90
33761;DHT22;20084;47.912;19.044;2023-07-16T04:47:16;20.40;99.90
33761;DHT22;20084;47.912;19.044;2023-07-16T04:49:41;20.50;99.90
33761;DHT22;20084;47.912;19.044;2023-07-16T04:52:07;20.50;99.90
33761;DHT22;20084;47.912;19.044;2023-07-16T04:54:38;20.70;99.90
33761;DHT22;20084;47.912;19.044;2023-07-16T04:57:05;20.80;99.90
33761;DHT22;20084;47.912;19.044;2023-07-16T04:59:31;20.90;99.90
33761;DHT22;20084;47.912;19.044;2023-07-16T05:01:56;21.00;99.90
33761;DHT22;20084;47.912;19.044;2023-07-16T05:04:21;21.20;99.90
33761;DHT22;20084;47.912;19.044;2023-07-16T05:06:47;21.30;99.90
33761;DHT22;20084;47.912;19.044;2023-07-16T05:09:13;21.40;99.90
33761;DHT22;20084;47.912;19.044;2023-07-16T05:11:38;21.60;99.90
33761;DHT22;20084;47.912;19.044;2023-07-16T05:14:04;21.80;99.90
33761;DHT22;20084;47.912;19.044;2023-07-16T05:16:29;21.90;99.90
33761;DHT22;20084;47.912;19.044;2023-07-16T05:18:55;22.10;99.90
33761;DHT22;20084;47.912;19.044;2023-07-16T05:21:20;22.20;99.90
33761;DHT22;20084;47.912;19.044;2023-07-16T05:23:46;22.40;99.90
33761;DHT22;20084;47.912;19.044;2023-07-16T05:26:11;22.50;99.90
33761;DHT22;20084;47.912;19.044;2023-07-16T05:28:37;22.50;99.90
33761;DHT22;20084;47.912;19.044;2023-07-16T05:31:03;22.60;99.90
33761;DHT22;20084;47.912;19.044;2023-07-16T05:33:28;22.70;99.90
33761;DHT22;20084;47.912;19.044;2023-07-16T05:35:54;22.80;99.90
33761;DHT22;20084;47.912;19.044;2023-07-16T05:38:19;22.90;99.90
33761;DHT22;20084;47.912;19.044;2023-07-16T05:40:45;23.00;99.90
33761;DHT22;20084;47.912;19.044;2023-07-16T05:43:10;23.10;99.90
33761;DHT22;20084;47.912;19.044;2023-07-16T05:45:36;23.20;99.90
33761;DHT22;20084;47.912;19.044;2023-07-16T05:48:02;23.30;99.90
33761;DHT22;20084;47.912;19.044;2023-07-16T05:50:27;23.40;99.90
33761;DHT22;20084;47.912;19.044;2023-07-16T05:52:53;23.50;99.90
33761;DHT22;20084;47.912;19.044;2023-07-16T05:55:18;23.60;99.90
33761;DHT22;20084;47.912;19.044;2023-07-16T05:57:44;23.70;99.90
33761;DHT22;20084;47.912;19.044;2023-07-16T06:00:09;23.80;99.90
33761;DHT22;20084;47.912;19.044;2023-07-16T06:02:35;23.80;99.90
33761;DHT22;20084;47.912;19.044;2023-07-16T06:05:01;23.90;99.90
33761;DHT22;20084;47.912;19.044;2023-07-16T06:07:26;24.00;99.90
33761;DHT22;20084;47.912;19.044;2023-07-16T06:09:52;24.10;99.90
33761;DHT22;20084;47.912;19.044;2023-07-16T06:12:17;24.20;99.90
33761;DHT22;20084;47.912;19.044;2023-07-16T06:14:43;24.20;99.90
33761;DHT22;20084;47.912;19.044;2023-07-16T06:17:08;24.30;99.90
33761;DHT22;20084;47.912;19.044;2023-07-16T06:19:34;24.30;99.90
33761;DHT22;20084;47.912;19.044;2023-07-16T06:21:59;24.40;99.90
33761;DHT22;20084;47.912;19.044;2023-07-16T06:24:25;24.50;99.90
33761;DHT22;20084;47.912;19.044;2023-07-16T06:26:50;24.50;99.90
33761;DHT22;20084;47.912;19.044;2023-07-16T06:29:16;24.60;99.90
33761;DHT22;20084;47.912;19.044;2023-07-16T06:31:54;24.80;99.90
33761;DHT22;20084;47.912;19.044;2023-07-16T06:34:19;24.80;99.90
33761;DHT22;20084;47.912;19.044;2023-07-16T06:36:45;24.90;99.90
33761;DHT22;20084;47.912;19.044;2023-07-16T06:39:10;25.00;99.90
33761;DHT22;20084;47.912;19.044;2023-07-16T06:41:36;25.10;99.90
33761;DHT22;20084;47.912;19.044;2023-07-16T06:44:01;25.10;99.90
33761;DHT22;20084;47.912;19.044;2023-07-16T06:46:27;25.20;99.90
33761;DHT22;20084;47.912;19.044;2023-07-16T06:48:52;25.30;99.90
33761;DHT22;20084;47.912;19.044;2023-07-16T06:51:18;25.30;99.90
33761;DHT22;20084;47.912;19.044;2023-07-16T06:53:44;25.30;99.90
33761;DHT22;20084;47.912;19.044;2023-07-16T06:56:09;25.40;99.90
33761;DHT22;20084;47.912;19.044;2023-07-16T06:58:35;25.50;99.90
33761;DHT22;20084;47.912;19.044;2023-07-16T07:01:00;25.60;99.90
33761;DHT22;20084;47.912;19.044;2023-07-16T07:03:26;25.60;99.90
33761;DHT22;20084;47.912;19.044;2023-07-16T07:05:51;25.50;99.90
33761;DHT22;20084;47.912;19.044;2023-07-16T07:08:17;25.70;99.90
33761;DHT22;20084;47.912;19.044;2023-07-16T07:10:42;25.80;99.90
33761;DHT22;20084;47.912;19.044;2023-07-16T07:13:08;25.90;99.90
33761;DHT22;20084;47.912;19.044;2023-07-16T07:15:33;25.90;99.90
33761;DHT22;20084;47.912;19.044;2023-07-16T07:17:59;26.10;99.90
33761;DHT22;20084;47.912;19.044;2023-07-16T07:20:24;26.00;99.90
33761;DHT22;20084;47.912;19.044;2023-07-16T07:22:50;26.00;99.90
33761;DHT22;20084;47.912;19.044;2023-07-16T07:25:15;26.00;99.90
33761;DHT22;20084;47.912;19.044;2023-07-16T07:27:41;26.10;99.90
33761;DHT22;20084;47.912;19.044;2023-07-16T07:30:07;26.10;99.90
33761;DHT22;20084;47.912;19.044;2023-07-16T07:32:32;26.20;99.90
33761;DHT22;20084;47.912;19.044;2023-07-16T07:34:58;26.40;99.90
33761;DHT22;20084;47.912;19.044;2023-07-16T07:37:23;26.50;99.90
33761;DHT22;20084;47.912;19.044;2023-07-16T07:39:51;26.60;99.90
33761;DHT22;20084;47.912;19.044;2023-07-16T07:42:17;26.60;99.90
33761;DHT22;20084;47.912;19.044;2023-07-16T07:44:43;26.60;99.90
33761;DHT22;20084;47.912;19.044;2023-07-16T07:47:08;26.60;99.90
33761;DHT22;20084;47.912;19.044;2023-07-16T07:49:34;26.60;99.90
33761;DHT22;20084;47.912;19.044;2023-07-16T07:52:00;26.70;99.90
33761;DHT22;20084;47.912;19.044;2023-07-16T07:54:25;26.90;99.90
33761;DHT22;20084;47.912;19.044;2023-07-16T07:56:51;27.00;99.90
33761;DHT22;20084;47.912;19.044;2023-07-16T07:59:16;27.10;99.90
33761;DHT22;20084;47.912;19.044;2023-07-16T08:01:42;27.20;99.90
33761;DHT22;20084;47.912;19.044;2023-07-16T08:04:07;27.30;99.90
33761;DHT22;20084;47.912;19.044;2023-07-16T08:06:33;27.30;99.90
33761;DHT22;20084;47.912;19.044;2023-07-16T08:08:59;27.20;99.90
33761;DHT22;20084;47.912;19.044;2023-07-16T08:11:24;27.20;99.90
33761;DHT22;20084;47.912;19.044;2023-07-16T08:13:50;27.30;99.90
33761;DHT22;20084;47.912;19.044;2023-07-16T08:16:15;27.50;99.90
33761;DHT22;20084;47.912;19.044;2023-07-16T08:18:41;27.60;99.90
33761;DHT22;20084;47.912;19.044;2023-07-16T08:21:06;27.50;99.90
33761;DHT22;20084;47.912;19.044;2023-07-16T08:23:31;27.50;99.90
33761;DHT22;20084;47.912;19.044;2023-07-16T08:25:57;27.50;99.90
33761;DHT22;20084;47.912;19.044;2023-07-16T08:28:22;27.60;99.90
33761;DHT22;20084;47.912;19.044;2023-07-16T08:30:48;27.60;99.90
33761;DHT22;20084;47.912;19.044;2023-07-16T08:33:14;27.60;99.90
33761;DHT22;20084;47.912;19.044;2023-07-16T08:35:40;27.60;99.90
33761;DHT22;20084;47.912;19.044;2023-07-16T08:38:06;27.70;99.90
33761;DHT22;20084;47.912;19.044;2023-07-16T08:40:35;27.80;99.90
33761;DHT22;20084;47.912;19.044;2023-07-16T08:43:01;28.00;99.90
33761;DHT22;20084;47.912;19.044;2023-07-16T08:45:27;28.10;99.90
33761;DHT22;20084;47.912;19.044;2023-07-16T08:47:53;28.20;99.90
33761;DHT22;20084;47.912;19.044;2023-07-16T08:50:19;28.30;99.90
33761;DHT22;20084;47.912;19.044;2023-07-16T08:52:46;28.30;99.90
33761;DHT22;20084;47.912;19.044;2023-07-16T08:55:12;28.40;99.90
33761;DHT22;20084;47.912;19.044;2023-07-16T08:57:38;28.50;99.90
33761;DHT22;20084;47.912;19.044;2023-07-16T09:00:04;28.50;99.90
33761;DHT22;20084;47.912;19.044;2023-07-16T09:02:31;28.60;99.90
33761;DHT22;20084;47.912;19.044;2023-07-16T09:04:56;28.70;99.90
33761;DHT22;20084;47.912;19.044;2023-07-16T09:07:22;28.90;99.90
33761;DHT22;20084;47.912;19.044;2023-07-16T09:09:57;28.90;99.90
33761;DHT22;20084;47.912;19.044;2023-07-16T09:12:26;28.90;99.90
33761;DHT22;20084;47.912;19.044;2023-07-16T09:14:51;29.00;99.90
33761;DHT22;20084;47.912;19.044;2023-07-16T09:17:23;29.00;99.90
33761;DHT22;20084;47.912;19.044;2023-07-16T09:19:50;29.10;99.90
33761;DHT22;20084;47.912;19.044;2023-07-16T09:22:16;29.10;99.90
33761;DHT22;20084;47.912;19.044;2023-07-16T09:24:44;29.30;99.90
33761;DHT22;20084;47.912;19.044;2023-07-16T09:27:11;29.40;99.90
33761;DHT22;20084;47.912;19.044;2023-07-16T09:29:37;29.50;99.90
33761;DHT22;20084;47.912;19.044;2023-07-16T09:32:03;29.50;99.90
33761;DHT22;20084;47.912;19.044;2023-07-16T09:34:29;29.70;99.90
33761;DHT22;20084;47.912;19.044;2023-07-16T09:36:56;29.80;99.90
33761;DHT22;20084;47.912;19.044;2023-07-16T09:39:21;29.80;99.90
33761;DHT22;20084;47.912;19.044;2023-07-16T09:41:48;29.70;99.90
33761;DHT22;20084;47.912;19.044;2023-07-16T09:44:14;29.80;99.90
33761;DHT22;20084;47.912;19.044;2023-07-16T09:46:40;29.80;99.90
33761;DHT22;20084;47.912;19.044;2023-07-16T09:49:06;29.70;99.90
33761;DHT22;20084;47.912;19.044;2023-07-16T09:51:32;29.70;99.90
33761;DHT22;20084;47.912;19.044;2023-07-16T09:54:00;29.80;99.90
33761;DHT22;20084;47.912;19.044;2023-07-16T09:56:26;29.90;99.90
33761;DHT22;20084;47.912;19.044;2023-07-16T09:58:56;30.10;99.90
33761;DHT22;20084;47.912;19.044;2023-07-16T10:01:22;30.20;99.90
33761;DHT22;20084;47.912;19.044;2023-07-16T10:03:48;30.30;99.90
33761;DHT22;20084;47.912;19.044;2023-07-16T10:06:14;30.20;99.90
33761;DHT22;20084;47.912;19.044;2023-07-16T10:08:40;30.30;99.90
33761;DHT22;20084;47.912;19.044;2023-07-16T10:11:14;30.20;99.90
33761;DHT22;20084;47.912;19.044;2023-07-16T10:13:40;30.20;99.90
33761;DHT22;20084;47.912;19.044;2023-07-16T10:16:06;30.30;99.90
33761;DHT22;20084;47.912;19.044;2023-07-16T10:18:33;30.30;99.90
33761;DHT22;20084;47.912;19.044;2023-07-16T10:21:03;30.40;99.90
33761;DHT22;20084;47.912;19.044;2023-07-16T10:23:41;30.50;99.90
33761;DHT22;20084;47.912;19.044;2023-07-16T10:26:07;30.60;99.90
33761;DHT22;20084;47.912;19.044;2023-07-16T10:28:33;30.50;99.90
33761;DHT22;20084;47.912;19.044;2023-07-16T10:30:59;30.50;99.90
33761;DHT22;20084;47.912;19.044;2023-07-16T10:33:24;30.50;99.90
33761;DHT22;20084;47.912;19.044;2023-07-16T10:35:50;30.60;99.90
33761;DHT22;20084;47.912;19.044;2023-07-16T10:38:15;30.70;99.90
33761;DHT22;20084;47.912;19.044;2023-07-16T10:40:41;30.80;99.90
33761;DHT22;20084;47.912;19.044;2023-07-16T10:43:07;30.80;99.90
33761;DHT22;20084;47.912;19.044;2023-07-16T10:45:33;30.80;99.90
33761;DHT22;20084;47.912;19.044;2023-07-16T10:47:59;30.80;99.90
33761;DHT22;20084;47.912;19.044;2023-07-16T10:50:24;30.80;99.90
33761;DHT22;20084;47.912;19.044;2023-07-16T10:52:53;31.00;99.90
33761;DHT22;20084;47.912;19.044;2023-07-16T10:55:19;31.00;99.90
33761;DHT22;20084;47.912;19.044;2023-07-16T10:57:47;31.10;99.90
33761;DHT22;20084;47.912;19.044;2023-07-16T11:00:12;31.20;99.90
33761;DHT22;20084;47.912;19.044;2023-07-16T11:02:41;31.30;99.90
33761;DHT22;20084;47.912;19.044;2023-07-16T11:05:11;31.40;99.90
33761;DHT22;20084;47.912;19.044;2023-07-16T11:07:37;31.50;99.90
33761;DHT22;20084;47.912;19.044;2023-07-16T11:10:03;31.50;99.90
33761;DHT22;20084;47.912;19.044;2023-07-16T11:12:28;31.40;99.90
33761;DHT22;20084;47.912;19.044;2023-07-16T11:14:55;31.40;99.90
33761;DHT22;20084;47.912;19.044;2023-07-16T11:17:21;31.40;99.90
33761;DHT22;20084;47.912;19.044;2023-07-16T11:19:50;31.30;98.90
33761;DHT22;20084;47.912;19.044;2023-07-16T11:22:16;31.40;99.90
33761;DHT22;20084;47.912;19.044;2023-07-16T11:24:45;31.60;99.90
33761;DHT22;20084;47.912;19.044;2023-07-16T11:29:44;31.80;99.90
33761;DHT22;20084;47.912;19.044;2023-07-16T11:32:10;31.80;99.90
33761;DHT22;20084;47.912;19.044;2023-07-16T11:34:35;31.80;99.90
33761;DHT22;20084;47.912;19.044;2023-07-16T11:37:08;31.90;99.90
33761;DHT22;20084;47.912;19.044;2023-07-16T11:39:34;32.10;99.90
33761;DHT22;20084;47.912;19.044;2023-07-16T11:41:59;32.00;99.90
33761;DHT22;20084;47.912;19.044;2023-07-16T11:44:31;32.10;99.90
33761;DHT22;20084;47.912;19.044;2023-07-16T11:46:58;32.20;99.90
33761;DHT22;20084;47.912;19.044;2023-07-16T11:49:23;32.20;99.90
33761;DHT22;20084;47.912;19.044;2023-07-16T11:51:49;32.20;99.40
33761;DHT22;20084;47.912;19.044;2023-07-16T11:54:14;32.10;99.30
33761;DHT22;20084;47.912;19.044;2023-07-16T11:56:40;32.20;99.90
33761;DHT22;20084;47.912;19.044;2023-07-16T11:59:05;32.20;99.90
33761;DHT22;20084;47.912;19.044;2023-07-16T12:01:31;32.20;97.90
33761;DHT22;20084;47.912;19.044;2023-07-16T12:03:56;32.10;98.30
33761;DHT22;20084;47.912;19.044;2023-07-16T12:06:22;32.10;97.50
33761;DHT22;20084;47.912;19.044;2023-07-16T12:08:47;32.00;97.30
33761;DHT22;20084;47.912;19.044;2023-07-16T12:11:13;31.90;97.90
33761;DHT22;20084;47.912;19.044;2023-07-16T12:13:38;31.90;97.20
33761;DHT22;20084;47.912;19.044;2023-07-16T12:16:04;31.90;97.80
33761;DHT22;20084;47.912;19.044;2023-07-16T12:18:30;31.90;98.00
33761;DHT22;20084;47.912;19.044;2023-07-16T12:20:56;32.10;99.00
33761;DHT22;20084;47.912;19.044;2023-07-16T12:23:22;32.30;98.40
33761;DHT22;20084;47.912;19.044;2023-07-16T12:25:47;32.30;96.30
33761;DHT22;20084;47.912;19.044;2023-07-16T12:28:13;32.20;98.30
33761;DHT22;20084;47.912;19.044;2023-07-16T12:30:39;32.30;97.80
33761;DHT22;20084;47.912;19.044;2023-07-16T12:33:05;32.20;99.00
33761;DHT22;20084;47.912;19.044;2023-07-16T12:35:30;32.20;98.80
33761;DHT22;20084;47.912;19.044;2023-07-16T12:37:56;32.20;97.40
33761;DHT22;20084;47.912;19.044;2023-07-16T12:40:23;32.00;97.00
33761;DHT22;20084;47.912;19.044;2023-07-16T12:42:49;31.90;98.00
33761;DHT22;20084;47.912;19.044;2023-07-16T12:45:14;31.90;98.30
33761;DHT22;20084;47.912;19.044;2023-07-16T12:47:40;31.90;98.50
33761;DHT22;20084;47.912;19.044;2023-07-16T12:50:06;31.90;98.00
33761;DHT22;20084;47.912;19.044;2023-07-16T12:52:31;31.80;97.80
33761;DHT22;20084;47.912;19.044;2023-07-16T12:54:57;31.60;98.90
33761;DHT22;20084;47.912;19.044;2023-07-16T12:57:22;31.60;97.90
33761;DHT22;20084;47.912;19.044;2023-07-16T12:59:48;31.50;99.30
33761;DHT22;20084;47.912;19.044;2023-07-16T13:02:13;31.40;97.90
33761;DHT22;20084;47.912;19.044;2023-07-16T13:04:39;31.50;99.40
33761;DHT22;20084;47.912;19.044;2023-07-16T13:07:04;31.70;99.90
33761;DHT22;20084;47.912;19.044;2023-07-16T13:09:30;31.90;99.50
33761;DHT22;20084;47.912;19.044;2023-07-16T13:11:56;32.00;98.40
33761;DHT22;20084;47.912;19.044;2023-07-16T13:14:21;32.00;97.20
33761;DHT22;20084;47.912;19.044;2023-07-16T13:16:47;32.00;97.20
33761;DHT22;20084;47.912;19.044;2023-07-16T13:19:13;31.90;98.50
33761;DHT22;20084;47.912;19.044;2023-07-16T13:21:38;31.90;98.40
33761;DHT22;20084;47.912;19.044;2023-07-16T13:24:04;31.80;97.70
33761;DHT22;20084;47.912;19.044;2023-07-16T13:26:30;31.70;99.00
33761;DHT22;20084;47.912;19.044;2023-07-16T13:28:55;31.60;99.60
33761;DHT22;20084;47.912;19.044;2023-07-16T13:31:21;31.70;99.90
33761;DHT22;20084;47.912;19.044;2023-07-16T13:33:47;31.90;99.60
33761;DHT22;20084;47.912;19.044;2023-07-16T13:36:12;31.90;97.50
33761;DHT22;20084;47.912;19.044;2023-07-16T13:38:38;31.80;99.50
33761;DHT22;20084;47.912;19.044;2023-07-16T13:41:04;31.70;99.30
33761;DHT22;20084;47.912;19.044;2023-07-16T13:43:30;31.60;98.70
33761;DHT22;20084;47.912;19.044;2023-07-16T13:45:55;31.60;97.90
33761;DHT22;20084;47.912;19.044;2023-07-16T13:48:21;31.40;98.50
33761;DHT22;20084;47.912;19.044;2023-07-16T13:50:47;31.30;98.30
33761;DHT22;20084;47.912;19.044;2023-07-16T13:53:12;31.30;98.60
33761;DHT22;20084;47.912;19.044;2023-07-16T13:55:38;31.30;99.90
33761;DHT22;20084;47.912;19.044;2023-07-16T13:58:04;31.50;99.20
33761;DHT22;20084;47.912;19.044;2023-07-16T14:00:30;31.60;99.80
33761;DHT22;20084;47.912;19.044;2023-07-16T14:02:55;31.70;98.30
33761;DHT22;20084;47.912;19.044;2023-07-16T14:05:21;31.70;98.10
33761;DHT22;20084;47.912;19.044;2023-07-16T14:07:47;31.70;98.30
33761;DHT22;20084;47.912;19.044;2023-07-16T14:10:14;31.80;99.10
33761;DHT22;20084;47.912;19.044;2023-07-16T14:12:40;31.80;98.60
33761;DHT22;20084;47.912;19.044;2023-07-16T14:15:06;31.70;98.70
33761;DHT22;20084;47.912;19.044;2023-07-16T14:17:32;31.50;97.80
33761;DHT22;20084;47.912;19.044;2023-07-16T14:19:58;31.40;99.60
33761;DHT22;20084;47.912;19.044;2023-07-16T14:22:24;31.60;99.90
33761;DHT22;20084;47.912;19.044;2023-07-16T14:24:53;31.70;99.90
33761;DHT22;20084;47.912;19.044;2023-07-16T14:27:19;31.80;99.80
33761;DHT22;20084;47.912;19.044;2023-07-16T14:29:45;31.90;99.90
33761;DHT22;20084;47.912;19.044;2023-07-16T14:32:11;32.00;99.90
33761;DHT22;20084;47.912;19.044;2023-07-16T14:34:38;32.10;99.50
33761;DHT22;20084;47.912;19.044;2023-07-16T14:37:04;32.10;98.10
33761;DHT22;20084;47.912;19.044;2023-07-16T14:39:30;32.10;98.90
33761;DHT22;20084;47.912;19.044;2023-07-16T14:41:56;32.10;99.80
33761;DHT22;20084;47.912;19.044;2023-07-16T14:44:21;32.20;99.00
33761;DHT22;20084;47.912;19.044;2023-07-16T14:46:47;32.20;99.30
33761;DHT22;20084;47.912;19.044;2023-07-16T14:49:13;32.30;99.20
33761;DHT22;20084;47.912;19.044;2023-07-16T14:51:39;32.30;97.90
33761;DHT22;20084;47.912;19.044;2023-07-16T14:54:05;32.20;99.20
33761;DHT22;20084;47.912;19.044;2023-07-16T14:56:32;32.30;99.10
33761;DHT22;20084;47.912;19.044;2023-07-16T14:58:57;32.40;99.00
33761;DHT22;20084;47.912;19.044;2023-07-16T15:01:23;32.40;97.00
33761;DHT22;20084;47.912;19.044;2023-07-16T15:03:49;32.30;97.50
33761;DHT22;20084;47.912;19.044;2023-07-16T15:06:15;32.20;96.30
33761;DHT22;20084;47.912;19.044;2023-07-16T15:08:41;32.10;96.30
33761;DHT22;20084;47.912;19.044;2023-07-16T15:11:07;32.10;97.00
33761;DHT22;20084;47.912;19.044;2023-07-16T15:13:33;32.20;99.00
33761;DHT22;20084;47.912;19.044;2023-07-16T15:15:59;32.30;98.90
33761;DHT22;20084;47.912;19.044;2023-07-16T15:18:25;32.30;98.10
33761;DHT22;20084;47.912;19.044;2023-07-16T15:20:56;32.40;98.30